Time;durP1;ratioP1;P1;durP2;ratioP2;P2;SDS_P1;SDS_P2;PMS_P1;PMS_P2;Temp;Humidity;BMP_temperature;BMP_pressure;BME280_temperature;BME280_humidity;BME280_pressure;Samples;Min_cycle;Max_cycle;Signal;HPM_P1;HPM_P2
2023/05/03 00:03:32;;;;;;;;;;;21.50;39.00;;;;;;8363327;28;19923;-44
2023/05/03 00:07:33;;;;;;;;;;;21.40;38.90;;;;;;8363625;28;19928;-44
2023/05/03 00:11:33;;;;;;;;;;;21.40;38.90;;;;;;8363685;28;19917;-44
2023/05/03 00:15:34;;;;;;;;;;;21.40;39.00;;;;;;8363608;28;20014;-44
2023/05/03 00:19:36;;;;;;;;;;;21.40;38.90;;;;;;8363915;28;20011;-45
2023/05/03 00:23:36;;;;;;;;;;;21.40;39.00;;;;;;8363400;28;19917;-44
2023/05/03 00:27:37;;;;;;;;;;;21.40;39.00;;;;;;8362597;28;19931;-44
2023/05/03 00:31:37;;;;;;;;;;;21.40;39.00;;;;;;8363499;28;19963;-43
2023/05/03 00:35:38;;;;;;;;;;;21.40;39.00;;;;;;8363059;28;19917;-44
2023/05/03 00:39:38;;;;;;;;;;;21.30;38.90;;;;;;8362324;28;19916;-43
2023/05/03 00:43:39;;;;;;;;;;;21.30;38.90;;;;;;8361678;28;20297;-43
2023/05/03 00:47:39;;;;;;;;;;;21.30;39.00;;;;;;8362614;28;19928;-43
2023/05/03 00:51:40;;;;;;;;;;;21.30;39.00;;;;;;8361973;28;20007;-43
2023/05/03 00:55:42;;;;;;;;;;;21.30;39.00;;;;;;8362873;28;19913;-43
2023/05/03 00:59:42;;;;;;;;;;;21.30;39.00;;;;;;8362210;28;19917;-43
2023/05/03 01:03:45;;;;;;;;;;;21.30;38.90;;;;;;8361660;28;19917;-43
2023/05/03 01:08:04;;;;;;;;;;;21.30;38.90;;;;;;8361697;28;19936;-43
2023/05/03 01:12:13;;;;;;;;;;;21.20;38.90;;;;;;8360377;28;19916;-44
2023/05/03 01:16:29;;;;;;;;;;;21.20;38.90;;;;;;8361541;28;19931;-44
2023/05/03 01:20:31;;;;;;;;;;;21.20;38.90;;;;;;8362047;28;19917;-44
2023/05/03 01:24:35;;;;;;;;;;;21.20;38.90;;;;;;8361309;28;19923;-43
2023/05/03 01:28:35;;;;;;;;;;;21.20;38.90;;;;;;8362010;28;19924;-43
2023/05/03 01:32:45;;;;;;;;;;;21.20;38.90;;;;;;8362018;28;19912;-44
2023/05/03 01:36:47;;;;;;;;;;;21.20;38.90;;;;;;8361354;28;19917;-43
2023/05/03 01:40:49;;;;;;;;;;;21.10;38.80;;;;;;8362190;28;19913;-43
2023/05/03 01:44:51;;;;;;;;;;;21.10;38.90;;;;;;8361419;28;19916;-43
2023/05/03 01:48:51;;;;;;;;;;;21.10;38.80;;;;;;8360930;28;19924;-44
2023/05/03 01:52:52;;;;;;;;;;;21.10;38.90;;;;;;8361347;28;19951;-42
2023/05/03 01:56:52;;;;;;;;;;;21.10;38.90;;;;;;8361425;28;20454;-44
2023/05/03 02:00:53;;;;;;;;;;;21.10;38.90;;;;;;8361221;28;19917;-42
2023/05/03 02:04:54;;;;;;;;;;;21.10;38.90;;;;;;8361233;28;19979;-43
2023/05/03 02:08:54;;;;;;;;;;;21.10;38.90;;;;;;8361169;28;19968;-44
2023/05/03 02:12:55;;;;;;;;;;;21.10;38.80;;;;;;8360728;28;19978;-43
2023/05/03 02:16:55;;;;;;;;;;;21.10;38.90;;;;;;8367154;28;19916;-43
2023/05/03 02:20:56;;;;;;;;;;;21.00;38.80;;;;;;8367148;28;19920;-43
2023/05/03 02:24:57;;;;;;;;;;;21.00;38.80;;;;;;8366354;28;20000;-43
2023/05/03 02:28:58;;;;;;;;;;;21.00;38.80;;;;;;8366986;28;19925;-43
2023/05/03 02:32:58;;;;;;;;;;;21.00;38.80;;;;;;8366804;28;20370;-44
2023/05/03 02:36:59;;;;;;;;;;;21.00;38.80;;;;;;8365872;28;19917;-44
2023/05/03 02:40:59;;;;;;;;;;;21.00;38.80;;;;;;8366656;28;19913;-43
2023/05/03 02:45:00;;;;;;;;;;;20.90;39.30;;;;;;8366313;28;19952;-43
2023/05/03 02:49:00;;;;;;;;;;;21.00;38.80;;;;;;8365874;28;19925;-43
2023/05/03 02:53:01;;;;;;;;;;;20.90;38.80;;;;;;8366092;28;19955;-43
2023/05/03 02:57:02;;;;;;;;;;;20.90;38.80;;;;;;8365991;28;19917;-43
2023/05/03 03:01:02;;;;;;;;;;;20.90;38.80;;;;;;8365484;28;19920;-43
2023/05/03 03:05:03;;;;;;;;;;;20.90;38.80;;;;;;8365269;28;20610;-43
2023/05/03 03:09:03;;;;;;;;;;;20.90;38.80;;;;;;8365450;28;19925;-43
2023/05/03 03:13:04;;;;;;;;;;;20.90;38.70;;;;;;8364730;28;19996;-42
2023/05/03 03:17:11;;;;;;;;;;;20.90;38.80;;;;;;8365286;28;19917;-43
2023/05/03 03:21:11;;;;;;;;;;;20.90;38.80;;;;;;8365356;28;19920;-42
2023/05/03 03:25:12;;;;;;;;;;;20.90;38.70;;;;;;8364432;28;20397;-43
2023/05/03 03:29:12;;;;;;;;;;;20.90;38.80;;;;;;8364747;28;19960;-43
2023/05/03 03:33:12;;;;;;;;;;;20.90;38.70;;;;;;8364669;28;19920;-42
2023/05/03 03:37:13;;;;;;;;;;;20.90;38.70;;;;;;8364005;28;20388;-43
2023/05/03 03:41:13;;;;;;;;;;;20.90;38.70;;;;;;8364934;28;19928;-44
2023/05/03 03:45:14;;;;;;;;;;;20.90;38.70;;;;;;8364258;28;19927;-43
2023/05/03 03:49:14;;;;;;;;;;;20.90;38.60;;;;;;8363841;28;19928;-44
2023/05/03 03:53:15;;;;;;;;;;;20.90;38.70;;;;;;8363969;28;19925;-44
2023/05/03 03:57:15;;;;;;;;;;;20.90;38.70;;;;;;8364021;28;19920;-43
2023/05/03 04:01:15;;;;;;;;;;;20.90;38.70;;;;;;8363541;28;20022;-44
2023/05/03 04:05:16;;;;;;;;;;;20.90;38.70;;;;;;8363604;28;19928;-43
2023/05/03 04:09:16;;;;;;;;;;;20.90;38.50;;;;;;8362386;28;19929;-44
2023/05/03 04:13:17;;;;;;;;;;;20.90;38.60;;;;;;8363021;28;19928;-43
2023/05/03 04:17:17;;;;;;;;;;;21.00;38.60;;;;;;8363189;28;19920;-44
2023/05/03 04:21:18;;;;;;;;;;;21.00;38.50;;;;;;8363425;28;19912;-44
2023/05/03 04:25:19;;;;;;;;;;;21.10;39.10;;;;;;8362679;28;19917;-44
2023/05/03 04:29:19;;;;;;;;;;;21.20;38.50;;;;;;8363167;28;19932;-45
2023/05/03 04:33:20;;;;;;;;;;;21.30;38.50;;;;;;8362785;28;19923;-44
2023/05/03 04:37:22;;;;;;;;;;;21.30;38.30;;;;;;8361804;28;19913;-44
2023/05/03 04:41:23;;;;;;;;;;;21.40;38.30;;;;;;8362761;28;19959;-45
2023/05/03 04:45:23;;;;;;;;;;;21.40;38.30;;;;;;8362156;28;19943;-44
2023/05/03 04:49:24;;;;;;;;;;;21.40;38.20;;;;;;8362353;28;20433;-44
2023/05/03 04:53:24;;;;;;;;;;;21.40;38.20;;;;;;8362267;28;19921;-44
2023/05/03 04:57:25;;;;;;;;;;;21.50;38.30;;;;;;8361993;28;20007;-44
2023/05/03 05:01:26;;;;;;;;;;;21.40;38.20;;;;;;8362440;28;19924;-44
2023/05/03 05:05:27;;;;;;;;;;;21.50;38.30;;;;;;8362309;28;19925;-44
2023/05/03 05:09:29;;;;;;;;;;;21.40;38.20;;;;;;8361488;28;20386;-44
2023/05/03 05:13:30;;;;;;;;;;;21.40;38.30;;;;;;8362480;28;19916;-44
2023/05/03 05:17:30;;;;;;;;;;;21.40;38.30;;;;;;8362520;28;20361;-44
2023/05/03 05:21:31;;;;;;;;;;;21.40;38.30;;;;;;8361491;28;20310;-46
2023/05/03 05:25:31;;;;;;;;;;;21.40;38.30;;;;;;8361921;28;19975;-44
2023/05/03 05:29:32;;;;;;;;;;;21.40;38.20;;;;;;8362025;28;19940;-45
2023/05/03 05:33:32;;;;;;;;;;;21.40;38.30;;;;;;8361589;28;19924;-44
2023/05/03 05:37:33;;;;;;;;;;;21.40;38.30;;;;;;8362023;28;19952;-45
2023/05/03 05:41:33;;;;;;;;;;;21.40;38.80;;;;;;8361696;28;19917;-44
2023/05/03 05:45:34;;;;;;;;;;;21.30;38.30;;;;;;8360912;28;19917;-45
2023/05/03 05:49:34;;;;;;;;;;;21.30;38.30;;;;;;8364567;28;20292;-44
2023/05/03 05:53:35;;;;;;;;;;;21.40;38.30;;;;;;8367906;28;19924;-45
2023/05/03 05:57:35;;;;;;;;;;;21.30;38.30;;;;;;8367435;28;19935;-44
2023/05/03 06:01:35;;;;;;;;;;;21.30;38.30;;;;;;8367750;28;20433;-44
2023/05/03 06:05:36;;;;;;;;;;;21.30;38.30;;;;;;8367599;28;19928;-45
2023/05/03 06:09:36;;;;;;;;;;;21.30;38.20;;;;;;8366947;28;20436;-45
2023/05/03 06:13:39;;;;;;;;;;;21.30;38.30;;;;;;8367126;28;20019;-45
2023/05/03 06:17:40;;;;;;;;;;;21.30;38.20;;;;;;8367263;28;19913;-45
2023/05/03 06:21:40;;;;;;;;;;;21.30;38.20;;;;;;8366471;28;19917;-44
2023/05/03 06:25:40;;;;;;;;;;;21.30;38.10;;;;;;8366593;28;20278;-44
2023/05/03 06:29:43;;;;;;;;;;;21.30;38.20;;;;;;8366621;28;19970;-45
2023/05/03 06:33:43;;;;;;;;;;;21.30;38.30;;;;;;8366083;28;19916;-44
2023/05/03 06:37:44;;;;;;;;;;;21.30;38.30;;;;;;8366649;28;19939;-45
2023/05/03 06:41:45;;;;;;;;;;;21.30;38.30;;;;;;8366429;28;19928;-45
2023/05/03 06:45:46;;;;;;;;;;;21.30;38.20;;;;;;8365782;28;19916;-46
2023/05/03 06:49:46;;;;;;;;;;;21.30;38.20;;;;;;8366173;28;20038;-44
2023/05/03 06:53:47;;;;;;;;;;;21.40;38.20;;;;;;8365867;28;19925;-44
2023/05/03 06:57:48;;;;;;;;;;;21.40;38.20;;;;;;8365567;28;20362;-44
2023/05/03 07:01:49;;;;;;;;;;;21.40;38.10;;;;;;8365489;28;19952;-44
2023/05/03 07:05:50;;;;;;;;;;;21.40;38.10;;;;;;8365868;28;20254;-45
2023/05/03 07:09:50;;;;;;;;;;;21.50;38.10;;;;;;8362997;28;19917;-44
2023/05/03 07:13:51;;;;;;;;;;;21.50;38.10;;;;;;8365297;28;19917;-46
2023/05/03 07:17:51;;;;;;;;;;;21.50;38.00;;;;;;8365504;28;19912;-44
2023/05/03 07:21:52;;;;;;;;;;;21.50;38.10;;;;;;8364656;28;20011;-46
2023/05/03 07:25:53;;;;;;;;;;;21.50;38.10;;;;;;8364924;28;19917;-45
2023/05/03 07:29:54;;;;;;;;;;;21.50;38.10;;;;;;8364788;28;20381;-44
2023/05/03 07:33:55;;;;;;;;;;;21.50;38.10;;;;;;8364303;28;19917;-44
2023/05/03 07:37:55;;;;;;;;;;;21.50;38.10;;;;;;8364941;28;19936;-44
2023/05/03 07:41:56;;;;;;;;;;;21.50;38.10;;;;;;8364481;28;19924;-44
2023/05/03 07:45:56;;;;;;;;;;;21.50;38.10;;;;;;8363728;28;19925;-44
2023/05/03 07:49:57;;;;;;;;;;;21.50;38.60;;;;;;8364157;28;19917;-44
2023/05/03 07:53:57;;;;;;;;;;;21.50;38.20;;;;;;8364246;28;20039;-44
2023/05/03 07:57:58;;;;;;;;;;;21.50;38.20;;;;;;8363770;28;19917;-44
2023/05/03 08:01:59;;;;;;;;;;;21.50;38.20;;;;;;8363712;28;19916;-44
2023/05/03 08:05:59;;;;;;;;;;;21.50;38.20;;;;;;8363724;28;19932;-43
2023/05/03 08:10:01;;;;;;;;;;;21.50;38.20;;;;;;8363172;28;20126;-44
2023/05/03 08:14:01;;;;;;;;;;;21.50;38.30;;;;;;8362867;28;19913;-43
2023/05/03 08:18:02;;;;;;;;;;;21.50;38.30;;;;;;8363692;28;19913;-44
2023/05/03 08:22:04;;;;;;;;;;;21.60;38.40;;;;;;8362639;28;19917;-44
2023/05/03 08:26:06;;;;;;;;;;;21.50;38.30;;;;;;8363215;28;20452;-43
2023/05/03 08:30:07;;;;;;;;;;;21.60;38.30;;;;;;8363207;28;20008;-44
2023/05/03 08:34:09;;;;;;;;;;;21.60;38.30;;;;;;8362543;28;19920;-45
2023/05/03 08:38:10;;;;;;;;;;;21.60;38.40;;;;;;8363247;28;20000;-46
2023/05/03 08:42:10;;;;;;;;;;;21.60;38.40;;;;;;8362750;28;19921;-44
2023/05/03 08:46:12;;;;;;;;;;;21.60;38.40;;;;;;8361961;28;19929;-43
2023/05/03 08:50:14;;;;;;;;;;;21.60;38.40;;;;;;8362732;28;19928;-44
2023/05/03 08:54:16;;;;;;;;;;;21.60;38.40;;;;;;8362638;28;19996;-44
2023/05/03 08:58:17;;;;;;;;;;;21.60;38.40;;;;;;8362083;28;19948;-44
2023/05/03 09:02:18;;;;;;;;;;;21.60;38.40;;;;;;8362248;28;19921;-44
2023/05/03 09:06:19;;;;;;;;;;;21.60;38.30;;;;;;8362074;28;19932;-44
2023/05/03 09:10:23;;;;;;;;;;;21.60;38.30;;;;;;8361750;28;19924;-44
2023/05/03 09:14:23;;;;;;;;;;;21.60;38.30;;;;;;8362833;28;20192;-44
2023/05/03 09:18:25;;;;;;;;;;;21.60;38.30;;;;;;8361944;28;19920;-42
2023/05/03 09:22:27;;;;;;;;;;;21.70;38.40;;;;;;8362953;28;19917;-44
2023/05/03 09:26:28;;;;;;;;;;;21.70;38.30;;;;;;8367895;28;19925;-44
2023/05/03 09:30:28;;;;;;;;;;;21.70;38.90;;;;;;8368342;28;19917;-44
2023/05/03 09:34:29;;;;;;;;;;;21.70;38.30;;;;;;8368525;28;19935;-44
2023/05/03 09:38:33;;;;;;;;;;;21.70;38.30;;;;;;8368936;28;20384;-43
2023/05/03 09:42:34;;;;;;;;;;;21.70;38.30;;;;;;8367864;28;20401;-42
2023/05/03 09:46:36;;;;;;;;;;;21.70;38.30;;;;;;8368080;28;19929;-44
2023/05/03 09:50:36;;;;;;;;;;;21.80;38.40;;;;;;8368268;28;20357;-44
2023/05/03 09:54:37;;;;;;;;;;;21.80;38.40;;;;;;8367619;28;19919;-44
2023/05/03 09:58:39;;;;;;;;;;;21.80;38.40;;;;;;8368167;28;19991;-44
2023/05/03 10:02:40;;;;;;;;;;;21.80;38.30;;;;;;8367793;28;19917;-45
2023/05/03 10:06:40;;;;;;;;;;;21.80;38.30;;;;;;8366201;28;19925;-44
2023/05/03 10:10:42;;;;;;;;;;;21.80;38.30;;;;;;8367351;28;20387;-45
2023/05/03 10:14:44;;;;;;;;;;;21.90;38.30;;;;;;8367355;28;19916;-44
2023/05/03 10:19:05;;;;;;;;;;;21.90;38.30;;;;;;8367006;28;19913;-44
2023/05/03 10:23:05;;;;;;;;;;;21.90;38.30;;;;;;8366362;28;19932;-43
2023/05/03 10:27:06;;;;;;;;;;;21.90;38.30;;;;;;8366904;28;19932;-44
2023/05/03 10:31:27;;;;;;;;;;;21.90;38.30;;;;;;8366336;28;19916;-44
2023/05/03 10:35:28;;;;;;;;;;;21.90;38.30;;;;;;8365854;28;19916;-44
2023/05/03 10:39:29;;;;;;;;;;;22.00;38.30;;;;;;8366296;28;19958;-44
2023/05/03 10:47:30;;;;;;;;;;;22.00;38.30;;;;;;8366371;28;19932;-44
2023/05/03 10:51:37;;;;;;;;;;;22.00;38.20;;;;;;8365837;28;19916;-45
2023/05/03 10:55:38;;;;;;;;;;;22.00;38.20;;;;;;8373765;28;20285;-44
2023/05/03 10:59:46;;;;;;;;;;;22.00;38.10;;;;;;8366408;28;19951;-44
2023/05/03 11:04:05;;;;;;;;;;;22.10;38.20;;;;;;8365601;28;19917;-45
2023/05/03 11:08:13;;;;;;;;;;;22.10;38.10;;;;;;8366002;28;20290;-44
2023/05/03 11:12:13;;;;;;;;;;;22.10;38.10;;;;;;8365674;28;19917;-44
2023/05/03 11:16:14;;;;;;;;;;;22.10;38.10;;;;;;8365043;28;20297;-45
2023/05/03 11:20:14;;;;;;;;;;;22.10;38.10;;;;;;8365608;28;19974;-46
2023/05/03 11:24:15;;;;;;;;;;;22.10;38.10;;;;;;8365637;28;19927;-44
2023/05/03 11:28:15;;;;;;;;;;;22.10;38.00;;;;;;8364286;28;20016;-45
2023/05/03 11:32:17;;;;;;;;;;;22.20;38.10;;;;;;8364893;28;19916;-46
2023/05/03 11:36:17;;;;;;;;;;;22.20;38.10;;;;;;8364774;28;19917;-45
2023/05/03 11:40:18;;;;;;;;;;;22.20;38.10;;;;;;8364268;28;19971;-44
2023/05/03 11:44:18;;;;;;;;;;;22.20;38.10;;;;;;8365019;28;20320;-44
2023/05/03 11:48:19;;;;;;;;;;;22.20;38.00;;;;;;8363729;28;19983;-43
2023/05/03 11:52:24;;;;;;;;;;;22.20;38.00;;;;;;8363876;28;20295;-43
2023/05/03 11:56:24;;;;;;;;;;;22.20;38.00;;;;;;8364229;28;19956;-43
2023/05/03 12:00:25;;;;;;;;;;;22.30;38.00;;;;;;8363640;28;19927;-43
2023/05/03 12:04:25;;;;;;;;;;;22.30;37.90;;;;;;8364433;28;20329;-42
2023/05/03 12:08:30;;;;;;;;;;;22.30;37.90;;;;;;8363650;28;19931;-45
2023/05/03 12:12:31;;;;;;;;;;;22.30;37.90;;;;;;8363218;28;20065;-44
2023/05/03 12:16:44;;;;;;;;;;;22.30;37.90;;;;;;8363392;28;20373;-45
2023/05/03 12:20:53;;;;;;;;;;;22.30;37.90;;;;;;8363554;28;20322;-44
2023/05/03 12:24:54;;;;;;;;;;;22.40;37.80;;;;;;8363261;28;20350;-45
2023/05/03 12:28:55;;;;;;;;;;;22.40;37.80;;;;;;8363232;28;20113;-45
2023/05/03 12:32:56;;;;;;;;;;;22.40;37.80;;;;;;8363029;28;19924;-44
2023/05/03 12:37:01;;;;;;;;;;;22.40;37.70;;;;;;8362634;28;20008;-44
2023/05/03 12:41:01;;;;;;;;;;;22.40;37.80;;;;;;8362949;28;19920;-44
2023/05/03 12:45:02;;;;;;;;;;;22.50;37.80;;;;;;8363040;28;19917;-44
2023/05/03 12:49:02;;;;;;;;;;;22.50;37.80;;;;;;8362302;28;20445;-44
2023/05/03 12:53:03;;;;;;;;;;;22.50;37.70;;;;;;8362640;28;20393;-44
2023/05/03 12:57:05;;;;;;;;;;;22.50;37.70;;;;;;8362053;28;19913;-44
2023/05/03 13:01:06;;;;;;;;;;;22.50;37.70;;;;;;8361751;28;19978;-43
2023/05/03 13:05:06;;;;;;;;;;;22.50;37.70;;;;;;8334488;28;20452;-43
2023/05/03 13:09:10;;;;;;;;;;;22.60;37.70;;;;;;8356593;28;22346;-44
2023/05/03 13:13:10;;;;;;;;;;;22.50;37.60;;;;;;8361615;28;19917;-43
2023/05/03 13:17:12;;;;;;;;;;;22.60;37.70;;;;;;8362256;28;20312;-42
2023/05/03 13:21:12;;;;;;;;;;;22.60;37.60;;;;;;8362014;28;19955;-44
2023/05/03 13:25:13;;;;;;;;;;;22.60;37.60;;;;;;8361738;28;20427;-43
2023/05/03 13:29:13;;;;;;;;;;;22.60;37.60;;;;;;8362333;28;20398;-44
2023/05/03 13:33:14;;;;;;;;;;;22.60;37.60;;;;;;8361995;28;20409;-44
2023/05/03 13:37:17;;;;;;;;;;;22.60;37.60;;;;;;8361281;28;20389;-44
2023/05/03 13:41:18;;;;;;;;;;;22.60;37.90;;;;;;8361637;28;20422;-44
2023/05/03 13:45:19;;;;;;;;;;;22.60;37.60;;;;;;8361418;28;20480;-44
2023/05/03 13:49:19;;;;;;;;;;;22.60;37.60;;;;;;8360932;28;20382;-43
2023/05/03 13:53:20;;;;;;;;;;;22.60;37.60;;;;;;8361453;28;19939;-44
2023/05/03 13:57:21;;;;;;;;;;;22.70;37.70;;;;;;8361481;28;19916;-43
2023/05/03 14:01:23;;;;;;;;;;;22.60;37.60;;;;;;8361492;28;19920;-43
2023/05/03 14:05:23;;;;;;;;;;;22.60;37.60;;;;;;8361731;28;19960;-43
2023/05/03 14:09:24;;;;;;;;;;;22.70;37.60;;;;;;8361817;28;20435;-43
2023/05/03 14:13:25;;;;;;;;;;;22.70;37.60;;;;;;8367556;28;20285;-43
2023/05/03 14:17:27;;;;;;;;;;;22.60;37.60;;;;;;8367359;28;19925;-43
2023/05/03 14:21:28;;;;;;;;;;;22.70;37.70;;;;;;8366759;28;19920;-43
2023/05/03 14:25:28;;;;;;;;;;;22.70;37.60;;;;;;8367696;28;19913;-42
2023/05/03 14:29:29;;;;;;;;;;;22.70;37.70;;;;;;8366782;28;19929;-43
2023/05/03 14:33:30;;;;;;;;;;;22.70;37.60;;;;;;8366544;28;20381;-43
2023/05/03 14:37:30;;;;;;;;;;;22.70;37.70;;;;;;8366570;28;19917;-44
2023/05/03 14:41:32;;;;;;;;;;;22.60;37.60;;;;;;8366449;28;19913;-43
2023/05/03 14:45:32;;;;;;;;;;;22.70;37.60;;;;;;8366651;28;19913;-43
2023/05/03 14:49:39;;;;;;;;;;;22.60;37.60;;;;;;8366182;28;19944;-43
2023/05/03 14:53:39;;;;;;;;;;;22.70;37.60;;;;;;8366480;28;19917;-44
2023/05/03 14:57:40;;;;;;;;;;;22.70;37.60;;;;;;8365798;28;19970;-44
2023/05/03 15:01:40;;;;;;;;;;;22.70;37.60;;;;;;8365923;28;19913;-45
2023/05/03 15:05:42;;;;;;;;;;;22.70;37.60;;;;;;8366400;28;20273;-43
2023/05/03 15:09:43;;;;;;;;;;;22.70;37.50;;;;;;8365327;28;19982;-44
2023/05/03 15:13:44;;;;;;;;;;;22.70;37.60;;;;;;8366048;28;19917;-43
2023/05/03 15:17:44;;;;;;;;;;;22.70;37.60;;;;;;8365304;28;20433;-44
2023/05/03 15:21:45;;;;;;;;;;;22.70;37.60;;;;;;8364754;28;19913;-44
2023/05/03 15:25:46;;;;;;;;;;;22.70;37.60;;;;;;8365861;28;19995;-44
2023/05/03 15:29:47;;;;;;;;;;;22.70;37.60;;;;;;8365111;28;19925;-43
2023/05/03 15:33:47;;;;;;;;;;;22.70;37.60;;;;;;8364515;28;19924;-44
2023/05/03 15:37:48;;;;;;;;;;;22.70;37.60;;;;;;8365129;28;19917;-44
2023/05/03 15:41:48;;;;;;;;;;;22.70;37.60;;;;;;8364793;28;19913;-43
2023/05/03 15:45:49;;;;;;;;;;;22.70;37.60;;;;;;8364441;28;19920;-43
2023/05/03 15:49:49;;;;;;;;;;;22.70;37.60;;;;;;8364405;28;20411;-42
2023/05/03 15:53:50;;;;;;;;;;;22.70;37.60;;;;;;8364650;28;20366;-44
2023/05/03 15:57:52;;;;;;;;;;;22.70;37.60;;;;;;8363671;28;20011;-43
2023/05/03 16:01:52;;;;;;;;;;;22.70;37.60;;;;;;8364339;28;20293;-44
2023/05/03 16:05:54;;;;;;;;;;;22.70;37.60;;;;;;8362949;28;19924;-43
2023/05/03 16:09:55;;;;;;;;;;;22.70;37.50;;;;;;8363136;28;20302;-43
2023/05/03 16:13:55;;;;;;;;;;;22.70;37.50;;;;;;8363678;28;19927;-44
2023/05/03 16:17:56;;;;;;;;;;;22.70;37.50;;;;;;8363557;28;19920;-42
2023/05/03 16:21:56;;;;;;;;;;;22.70;37.50;;;;;;8363069;28;20003;-44
2023/05/03 16:25:57;;;;;;;;;;;22.70;37.50;;;;;;8363020;28;19970;-46
2023/05/03 16:29:57;;;;;;;;;;;22.60;37.50;;;;;;8363090;28;20329;-43
2023/05/03 16:33:58;;;;;;;;;;;22.60;37.50;;;;;;8361960;28;20397;-43
2023/05/03 16:37:58;;;;;;;;;;;22.70;37.50;;;;;;8362748;28;19916;-43
2023/05/03 16:41:59;;;;;;;;;;;22.60;37.40;;;;;;8362965;28;20263;-43
2023/05/03 16:46:01;;;;;;;;;;;22.60;37.40;;;;;;8362149;28;20007;-43
2023/05/03 16:50:01;;;;;;;;;;;22.70;37.50;;;;;;8362730;28;19929;-43
2023/05/03 16:54:02;;;;;;;;;;;22.60;37.40;;;;;;8362554;28;19917;-43
2023/05/03 16:58:02;;;;;;;;;;;22.60;37.40;;;;;;8361947;28;19917;-44
2023/05/03 17:02:03;;;;;;;;;;;22.70;37.50;;;;;;8363009;28;20051;-42
2023/05/03 17:06:03;;;;;;;;;;;22.70;37.50;;;;;;8362364;28;19921;-42
2023/05/03 17:10:05;;;;;;;;;;;22.70;37.50;;;;;;8361816;28;20011;-43
2023/05/03 17:14:05;;;;;;;;;;;22.70;37.50;;;;;;8362065;28;20015;-45
2023/05/03 17:18:06;;;;;;;;;;;22.70;37.50;;;;;;8362167;28;20309;-44
2023/05/03 17:22:07;;;;;;;;;;;22.70;37.50;;;;;;8361836;28;20332;-44
2023/05/03 17:26:08;;;;;;;;;;;22.70;37.40;;;;;;8361993;28;20289;-42
2023/05/03 17:30:08;;;;;;;;;;;22.70;37.40;;;;;;8361827;28;19924;-42
2023/05/03 17:34:09;;;;;;;;;;;22.70;37.40;;;;;;8361268;28;19952;-42
2023/05/03 17:38:10;;;;;;;;;;;22.70;37.40;;;;;;8361971;28;20074;-42
2023/05/03 17:42:10;;;;;;;;;;;22.70;37.40;;;;;;8361673;28;20329;-42
2023/05/03 17:46:12;;;;;;;;;;;22.70;37.40;;;;;;8366185;28;19943;-44
2023/05/03 17:50:12;;;;;;;;;;;22.70;37.90;;;;;;8368073;28;19916;-43
2023/05/03 17:54:13;;;;;;;;;;;22.70;37.40;;;;;;8367973;28;19928;-42
2023/05/03 17:58:13;;;;;;;;;;;22.70;37.40;;;;;;8367715;28;20387;-43
2023/05/03 18:02:14;;;;;;;;;;;22.60;37.30;;;;;;8368647;28;20326;-43
2023/05/03 18:06:14;;;;;;;;;;;22.60;37.40;;;;;;8368321;28;19921;-43
2023/05/03 18:10:16;;;;;;;;;;;22.60;37.40;;;;;;8367684;28;19956;-43
2023/05/03 18:14:16;;;;;;;;;;;22.60;37.40;;;;;;8368241;28;19931;-43
2023/05/03 18:18:17;;;;;;;;;;;22.60;37.40;;;;;;8367518;28;20373;-43
2023/05/03 18:22:17;;;;;;;;;;;22.60;37.40;;;;;;8366757;28;19916;-42
2023/05/03 18:26:18;;;;;;;;;;;22.60;37.40;;;;;;8366860;28;20421;-42
2023/05/03 18:30:18;;;;;;;;;;;22.60;37.40;;;;;;8367310;28;19924;-43
2023/05/03 18:34:19;;;;;;;;;;;22.60;37.50;;;;;;8366415;28;19963;-44
2023/05/03 18:38:20;;;;;;;;;;;22.50;37.40;;;;;;8366687;28;20361;-43
2023/05/03 18:42:21;;;;;;;;;;;22.60;37.50;;;;;;8366833;28;19920;-44
2023/05/03 18:46:22;;;;;;;;;;;22.50;37.50;;;;;;8366471;28;19929;-42
2023/05/03 18:50:22;;;;;;;;;;;22.50;37.50;;;;;;8366226;28;20397;-44
2023/05/03 18:54:23;;;;;;;;;;;22.50;37.50;;;;;;8365858;28;19917;-44
2023/05/03 18:58:23;;;;;;;;;;;22.50;37.50;;;;;;8365429;28;19924;-43
2023/05/03 19:02:24;;;;;;;;;;;22.50;37.50;;;;;;8366086;28;19919;-43
2023/05/03 19:06:24;;;;;;;;;;;22.50;37.50;;;;;;8364995;28;19932;-44
2023/05/03 19:10:25;;;;;;;;;;;22.50;37.50;;;;;;8364391;28;19916;-43
2023/05/03 19:14:25;;;;;;;;;;;22.40;37.50;;;;;;8365750;28;20011;-43
2023/05/03 19:18:26;;;;;;;;;;;22.40;37.40;;;;;;8365100;28;19916;-44
2023/05/03 19:22:26;;;;;;;;;;;22.40;37.40;;;;;;8365801;28;20277;-44
2023/05/03 19:26:27;;;;;;;;;;;22.50;37.50;;;;;;8365134;28;19932;-43
2023/05/03 19:30:27;;;;;;;;;;;22.50;37.50;;;;;;8364637;28;19916;-43
2023/05/03 19:34:27;;;;;;;;;;;22.50;37.40;;;;;;8365152;28;20004;-43
2023/05/03 19:38:28;;;;;;;;;;;22.50;37.40;;;;;;8365000;28;20336;-43
2023/05/03 19:42:29;;;;;;;;;;;22.50;37.40;;;;;;8364499;28;19958;-44
2023/05/03 19:46:29;;;;;;;;;;;22.50;37.40;;;;;;8364510;28;19924;-43
2023/05/03 19:50:30;;;;;;;;;;;22.50;37.40;;;;;;8364866;28;19924;-44
2023/05/03 19:54:32;;;;;;;;;;;22.50;37.40;;;;;;8363861;28;19956;-45
2023/05/03 19:58:32;;;;;;;;;;;22.40;37.40;;;;;;8364639;28;19920;-44
2023/05/03 20:02:35;;;;;;;;;;;22.40;37.40;;;;;;8364362;28;20263;-44
2023/05/03 20:06:35;;;;;;;;;;;22.40;37.40;;;;;;8363133;28;19929;-44
2023/05/03 20:10:36;;;;;;;;;;;22.40;37.40;;;;;;8363775;28;19921;-44
2023/05/03 20:14:37;;;;;;;;;;;22.40;37.40;;;;;;8363732;28;19920;-44
2023/05/03 20:18:38;;;;;;;;;;;22.40;37.40;;;;;;8363740;28;20282;-44
2023/05/03 20:22:38;;;;;;;;;;;22.30;37.40;;;;;;8363991;28;19913;-44
2023/05/03 20:26:39;;;;;;;;;;;22.30;37.40;;;;;;8363301;28;19951;-44
2023/05/03 20:30:40;;;;;;;;;;;22.30;37.40;;;;;;8362940;28;19917;-43
2023/05/03 20:34:41;;;;;;;;;;;22.30;37.40;;;;;;8363107;28;19924;-43
2023/05/03 20:38:41;;;;;;;;;;;22.30;37.40;;;;;;8363391;28;19912;-43
2023/05/03 20:42:42;;;;;;;;;;;22.30;37.40;;;;;;8362581;28;19916;-44
2023/05/03 20:46:44;;;;;;;;;;;22.30;37.40;;;;;;8363099;28;19931;-44
2023/05/03 20:50:44;;;;;;;;;;;22.30;37.40;;;;;;8362688;28;20012;-44
2023/05/03 20:54:45;;;;;;;;;;;22.20;37.40;;;;;;8362329;28;19917;-44
2023/05/03 20:58:45;;;;;;;;;;;22.30;37.50;;;;;;8362871;28;20382;-43
2023/05/03 21:02:51;;;;;;;;;;;22.20;37.40;;;;;;8362596;28;19920;-44
2023/05/03 21:06:52;;;;;;;;;;;22.20;37.40;;;;;;8361959;28;20377;-44
2023/05/03 21:10:53;;;;;;;;;;;22.20;37.40;;;;;;8362398;28;19917;-43
2023/05/03 21:14:53;;;;;;;;;;;22.20;37.40;;;;;;8362427;28;20373;-44
2023/05/03 21:18:54;;;;;;;;;;;22.20;37.40;;;;;;8361989;28;19949;-43
2023/05/03 21:22:54;;;;;;;;;;;22.20;38.00;;;;;;8362532;28;19920;-44
2023/05/03 21:26:56;;;;;;;;;;;22.20;37.50;;;;;;8361931;28;19924;-44
2023/05/03 21:30:56;;;;;;;;;;;22.20;37.50;;;;;;8361559;28;20447;-44
2023/05/03 21:34:57;;;;;;;;;;;22.20;37.50;;;;;;8362055;28;19921;-43
2023/05/03 21:38:57;;;;;;;;;;;22.20;37.50;;;;;;8362545;28;19917;-43
2023/05/03 21:42:57;;;;;;;;;;;22.10;37.40;;;;;;8361485;28;19916;-43
2023/05/03 21:46:58;;;;;;;;;;;22.10;37.40;;;;;;8361723;28;19924;-44
2023/05/03 21:50:59;;;;;;;;;;;22.10;37.50;;;;;;8362004;28;19917;-44
2023/05/03 21:54:59;;;;;;;;;;;22.10;37.50;;;;;;8361253;28;20003;-44
2023/05/03 21:59:00;;;;;;;;;;;22.10;37.50;;;;;;8361956;28;19927;-44
2023/05/03 22:03:01;;;;;;;;;;;22.10;37.50;;;;;;8358800;28;19924;-44
2023/05/03 22:07:02;;;;;;;;;;;22.10;37.50;;;;;;8359767;28;20008;-44
2023/05/03 22:11:04;;;;;;;;;;;22.00;37.50;;;;;;8361562;28;20335;-45
2023/05/03 22:15:04;;;;;;;;;;;22.00;37.50;;;;;;8361645;28;20266;-43
2023/05/03 22:19:05;;;;;;;;;;;22.00;37.50;;;;;;8361217;28;19917;-44
2023/05/03 22:23:06;;;;;;;;;;;22.00;37.50;;;;;;8361690;28;19921;-43
2023/05/03 22:27:06;;;;;;;;;;;22.00;37.50;;;;;;8361438;28;20036;-43
2023/05/03 22:31:07;;;;;;;;;;;22.00;37.60;;;;;;8362550;28;19942;-44
2023/05/03 22:35:08;;;;;;;;;;;22.00;37.50;;;;;;8367245;28;19913;-44
2023/05/03 22:39:09;;;;;;;;;;;22.00;37.50;;;;;;8367210;28;19917;-43
2023/05/03 22:43:10;;;;;;;;;;;21.90;37.50;;;;;;8366255;28;20292;-43
2023/05/03 22:47:10;;;;;;;;;;;21.90;37.50;;;;;;8366569;28;19932;-44
2023/05/03 22:51:11;;;;;;;;;;;21.90;37.50;;;;;;8366544;28;19920;-43
2023/05/03 22:55:11;;;;;;;;;;;21.90;37.50;;;;;;8365854;28;19925;-43
2023/05/03 22:59:12;;;;;;;;;;;21.90;37.60;;;;;;8366758;28;19923;-43
2023/05/03 23:03:12;;;;;;;;;;;21.90;37.60;;;;;;8366126;28;19917;-44
2023/05/03 23:07:14;;;;;;;;;;;21.80;37.50;;;;;;8365574;28;20309;-43
2023/05/03 23:11:14;;;;;;;;;;;21.80;38.10;;;;;;8366158;28;20378;-43
2023/05/03 23:15:15;;;;;;;;;;;21.80;37.50;;;;;;8365779;28;20039;-43
2023/05/03 23:19:15;;;;;;;;;;;21.80;37.60;;;;;;8365557;28;19956;-44
2023/05/03 23:23:16;;;;;;;;;;;21.80;37.60;;;;;;8365471;28;19928;-43
2023/05/03 23:27:16;;;;;;;;;;;21.80;37.60;;;;;;8365405;28;20033;-42